sensor_id;sensor_type;location;lat;lon;timestamp;pressure;altitude;pressure_sealevel;temperature;humidity
58769;BME280;44536;47.474;19.056;2023-05-23T00:02:44;100197.78;;;16.16;98.97
58769;BME280;44536;47.474;19.056;2023-05-23T00:05:48;100196.94;;;16.15;97.34
58769;BME280;44536;47.474;19.056;2023-05-23T00:08:51;100199.84;;;16.22;98.16
58769;BME280;44536;47.474;19.056;2023-05-23T00:11:53;100192.81;;;16.21;98.71
58769;BME280;44536;47.474;19.056;2023-05-23T00:14:55;100195.03;;;16.26;99.94
58769;BME280;44536;47.474;19.056;2023-05-23T00:17:57;100199.38;;;16.27;99.18
58769;BME280;44536;47.474;19.056;2023-05-23T00:21:02;100192.66;;;16.22;99.88
58769;BME280;44536;47.474;19.056;2023-05-23T00:24:04;100189.44;;;16.19;99.50
58769;BME280;44536;47.474;19.056;2023-05-23T00:27:07;100187.94;;;16.16;100.00
58769;BME280;44536;47.474;19.056;2023-05-23T00:30:09;100183.78;;;16.22;100.00
58769;BME280;44536;47.474;19.056;2023-05-23T00:33:11;100181.94;;;16.22;100.00
58769;BME280;44536;47.474;19.056;2023-05-23T00:36:15;100182.41;;;16.18;100.00
58769;BME280;44536;47.474;19.056;2023-05-23T00:39:19;100183.56;;;16.15;100.00
58769;BME280;44536;47.474;19.056;2023-05-23T00:42:22;100186.56;;;16.12;99.95
58769;BME280;44536;47.474;19.056;2023-05-23T00:45:24;100195.44;;;16.13;100.00
58769;BME280;44536;47.474;19.056;2023-05-23T00:48:26;100198.28;;;16.11;100.00
58769;BME280;44536;47.474;19.056;2023-05-23T00:51:29;100200.69;;;15.97;100.00
58769;BME280;44536;47.474;19.056;2023-05-23T00:54:32;100199.00;;;15.96;100.00
58769;BME280;44536;47.474;19.056;2023-05-23T00:57:35;100189.50;;;16.01;100.00
58769;BME280;44536;47.474;19.056;2023-05-23T01:00:41;100187.62;;;15.94;100.00
58769;BME280;44536;47.474;19.056;2023-05-23T01:03:45;100191.22;;;15.84;99.58
58769;BME280;44536;47.474;19.056;2023-05-23T01:06:49;100187.78;;;15.74;100.00
58769;BME280;44536;47.474;19.056;2023-05-23T01:09:51;100186.25;;;15.72;100.00
58769;BME280;44536;47.474;19.056;2023-05-23T01:16:04;100192.00;;;15.59;100.00
58769;BME280;44536;47.474;19.056;2023-05-23T01:29:36;100183.03;;;15.33;100.00
58769;BME280;44536;47.474;19.056;2023-05-23T01:32:28;100180.34;;;15.33;100.00
58769;BME280;44536;47.474;19.056;2023-05-23T01:35:32;100184.41;;;15.37;100.00
58769;BME280;44536;47.474;19.056;2023-05-23T01:38:34;100178.53;;;15.33;100.00
58769;BME280;44536;47.474;19.056;2023-05-23T01:41:36;100179.41;;;15.24;100.00
58769;BME280;44536;47.474;19.056;2023-05-23T01:44:39;100175.75;;;15.25;100.00
58769;BME280;44536;47.474;19.056;2023-05-23T01:47:42;100171.84;;;15.19;100.00
58769;BME280;44536;47.474;19.056;2023-05-23T01:50:45;100182.75;;;15.08;100.00
58769;BME280;44536;47.474;19.056;2023-05-23T01:53:51;100174.91;;;15.07;100.00
58769;BME280;44536;47.474;19.056;2023-05-23T01:56:54;100169.34;;;15.00;100.00
58769;BME280;44536;47.474;19.056;2023-05-23T01:59:57;100174.19;;;14.87;100.00
58769;BME280;44536;47.474;19.056;2023-05-23T02:02:59;100175.84;;;14.88;100.00
58769;BME280;44536;47.474;19.056;2023-05-23T02:06:02;100176.59;;;14.80;100.00
58769;BME280;44536;47.474;19.056;2023-05-23T02:09:04;100174.47;;;14.84;100.00
58769;BME280;44536;47.474;19.056;2023-05-23T02:12:06;100168.44;;;14.82;100.00
58769;BME280;44536;47.474;19.056;2023-05-23T02:15:10;100170.41;;;14.80;100.00
58769;BME280;44536;47.474;19.056;2023-05-23T02:18:12;100168.03;;;14.77;100.00
58769;BME280;44536;47.474;19.056;2023-05-23T02:21:16;100158.50;;;14.74;100.00
58769;BME280;44536;47.474;19.056;2023-05-23T02:24:18;100165.41;;;14.67;100.00
58769;BME280;44536;47.474;19.056;2023-05-23T02:27:20;100164.78;;;14.55;100.00
58769;BME280;44536;47.474;19.056;2023-05-23T02:30:22;100164.62;;;14.57;100.00
58769;BME280;44536;47.474;19.056;2023-05-23T02:33:25;100172.09;;;14.53;100.00
58769;BME280;44536;47.474;19.056;2023-05-23T02:36:27;100173.22;;;14.51;100.00
58769;BME280;44536;47.474;19.056;2023-05-23T02:39:29;100163.84;;;14.47;100.00
58769;BME280;44536;47.474;19.056;2023-05-23T02:42:32;100161.88;;;14.49;100.00
58769;BME280;44536;47.474;19.056;2023-05-23T02:45:34;100171.00;;;14.46;100.00
58769;BME280;44536;47.474;19.056;2023-05-23T02:48:37;100164.97;;;14.44;100.00
58769;BME280;44536;47.474;19.056;2023-05-23T02:51:40;100165.22;;;14.51;100.00
58769;BME280;44536;47.474;19.056;2023-05-23T02:54:42;100164.69;;;14.47;100.00
58769;BME280;44536;47.474;19.056;2023-05-23T02:57:44;100160.19;;;14.38;100.00
58769;BME280;44536;47.474;19.056;2023-05-23T03:00:46;100167.94;;;14.32;100.00
58769;BME280;44536;47.474;19.056;2023-05-23T03:03:48;100165.25;;;14.32;100.00
58769;BME280;44536;47.474;19.056;2023-05-23T03:06:51;100160.78;;;14.42;100.00
58769;BME280;44536;47.474;19.056;2023-05-23T03:09:55;100156.69;;;14.38;100.00
58769;BME280;44536;47.474;19.056;2023-05-23T03:12:57;100157.50;;;14.38;100.00
58769;BME280;44536;47.474;19.056;2023-05-23T03:15:59;100159.34;;;14.38;100.00
58769;BME280;44536;47.474;19.056;2023-05-23T03:19:02;100170.84;;;14.38;100.00
58769;BME280;44536;47.474;19.056;2023-05-23T03:22:05;100157.09;;;14.52;100.00
58769;BME280;44536;47.474;19.056;2023-05-23T03:25:07;100152.19;;;14.48;100.00
58769;BME280;44536;47.474;19.056;2023-05-23T03:28:10;100166.63;;;14.55;100.00
58769;BME280;44536;47.474;19.056;2023-05-23T03:31:12;100169.28;;;14.55;100.00
58769;BME280;44536;47.474;19.056;2023-05-23T03:34:15;100166.41;;;14.66;100.00
58769;BME280;44536;47.474;19.056;2023-05-23T03:37:17;100161.56;;;14.79;100.00
58769;BME280;44536;47.474;19.056;2023-05-23T03:40:19;100160.69;;;14.88;100.00
58769;BME280;44536;47.474;19.056;2023-05-23T03:43:22;100162.47;;;14.98;100.00
58769;BME280;44536;47.474;19.056;2023-05-23T03:46:25;100154.22;;;15.09;100.00
58769;BME280;44536;47.474;19.056;2023-05-23T03:49:27;100150.41;;;15.11;100.00
58769;BME280;44536;47.474;19.056;2023-05-23T03:52:30;100154.44;;;15.15;100.00
58769;BME280;44536;47.474;19.056;2023-05-23T03:55:32;100153.16;;;15.19;100.00
58769;BME280;44536;47.474;19.056;2023-05-23T03:58:35;100153.41;;;15.26;100.00
58769;BME280;44536;47.474;19.056;2023-05-23T04:01:39;100156.16;;;15.34;100.00
58769;BME280;44536;47.474;19.056;2023-05-23T04:04:41;100163.41;;;15.42;100.00
58769;BME280;44536;47.474;19.056;2023-05-23T04:07:44;100156.47;;;15.49;100.00
58769;BME280;44536;47.474;19.056;2023-05-23T04:10:46;100161.34;;;15.53;100.00
58769;BME280;44536;47.474;19.056;2023-05-23T04:13:48;100164.34;;;15.68;100.00
58769;BME280;44536;47.474;19.056;2023-05-23T04:16:53;100158.13;;;15.85;100.00
58769;BME280;44536;47.474;19.056;2023-05-23T04:19:56;100164.38;;;15.94;100.00
58769;BME280;44536;47.474;19.056;2023-05-23T04:22:59;100161.63;;;16.04;100.00
58769;BME280;44536;47.474;19.056;2023-05-23T04:26:02;100161.22;;;16.25;100.00
58769;BME280;44536;47.474;19.056;2023-05-23T04:29:04;100162.50;;;16.38;100.00
58769;BME280;44536;47.474;19.056;2023-05-23T04:32:07;100161.91;;;16.27;100.00
58769;BME280;44536;47.474;19.056;2023-05-23T04:35:09;100159.91;;;16.29;100.00
58769;BME280;44536;47.474;19.056;2023-05-23T04:38:15;100169.31;;;16.33;100.00
58769;BME280;44536;47.474;19.056;2023-05-23T04:41:18;100161.81;;;16.36;100.00
58769;BME280;44536;47.474;19.056;2023-05-23T04:44:24;100166.25;;;16.53;100.00
58769;BME280;44536;47.474;19.056;2023-05-23T04:47:33;100157.50;;;16.43;99.56
58769;BME280;44536;47.474;19.056;2023-05-23T04:50:38;100160.38;;;16.50;98.64
58769;BME280;44536;47.474;19.056;2023-05-23T04:53:41;100165.03;;;16.74;96.82
58769;BME280;44536;47.474;19.056;2023-05-23T04:56:44;100164.22;;;16.81;95.40
58769;BME280;44536;47.474;19.056;2023-05-23T04:59:48;100165.25;;;16.88;96.53
58769;BME280;44536;47.474;19.056;2023-05-23T05:02:51;100168.66;;;16.99;94.69
58769;BME280;44536;47.474;19.056;2023-05-23T05:05:53;100165.19;;;17.14;94.26
58769;BME280;44536;47.474;19.056;2023-05-23T05:08:56;100169.91;;;17.45;91.89
58769;BME280;44536;47.474;19.056;2023-05-23T05:11:59;100166.59;;;17.75;90.56
58769;BME280;44536;47.474;19.056;2023-05-23T05:15:02;100169.94;;;17.61;90.26
58769;BME280;44536;47.474;19.056;2023-05-23T05:18:05;100172.47;;;17.79;87.78
58769;BME280;44536;47.474;19.056;2023-05-23T05:21:08;100167.59;;;17.91;87.88
58769;BME280;44536;47.474;19.056;2023-05-23T05:24:11;100166.09;;;18.12;86.53
58769;BME280;44536;47.474;19.056;2023-05-23T05:27:13;100164.34;;;18.36;84.75
58769;BME280;44536;47.474;19.056;2023-05-23T05:30:15;100157.06;;;18.69;85.54
58769;BME280;44536;47.474;19.056;2023-05-23T05:33:19;100162.63;;;18.59;84.41
58769;BME280;44536;47.474;19.056;2023-05-23T05:36:22;100170.97;;;18.72;81.70
58769;BME280;44536;47.474;19.056;2023-05-23T05:39:24;100160.94;;;19.59;79.81
58769;BME280;44536;47.474;19.056;2023-05-23T05:42:30;100160.94;;;20.64;72.73
58769;BME280;44536;47.474;19.056;2023-05-23T05:45:32;100162.56;;;21.24;67.50
58769;BME280;44536;47.474;19.056;2023-05-23T05:48:34;100163.69;;;22.00;63.92
58769;BME280;44536;47.474;19.056;2023-05-23T05:51:37;100154.53;;;23.59;60.70
58769;BME280;44536;47.474;19.056;2023-05-23T05:54:40;100159.25;;;24.69;53.83
58769;BME280;44536;47.474;19.056;2023-05-23T05:57:42;100157.91;;;24.33;55.19
58769;BME280;44536;47.474;19.056;2023-05-23T06:00:46;100154.72;;;24.50;53.62
58769;BME280;44536;47.474;19.056;2023-05-23T06:03:50;100153.50;;;24.39;52.39
58769;BME280;44536;47.474;19.056;2023-05-23T06:06:52;100155.28;;;23.26;54.16
58769;BME280;44536;47.474;19.056;2023-05-23T06:09:54;100159.56;;;24.41;53.09
58769;BME280;44536;47.474;19.056;2023-05-23T06:12:57;100154.97;;;23.82;54.21
58769;BME280;44536;47.474;19.056;2023-05-23T06:15:59;100153.63;;;23.45;55.63
58769;BME280;44536;47.474;19.056;2023-05-23T06:19:02;100159.78;;;23.06;57.49
58769;BME280;44536;47.474;19.056;2023-05-23T06:22:05;100154.28;;;24.53;53.01
58769;BME280;44536;47.474;19.056;2023-05-23T06:25:07;100159.84;;;24.84;52.49
58769;BME280;44536;47.474;19.056;2023-05-23T06:28:10;100151.78;;;26.28;47.82
58769;BME280;44536;47.474;19.056;2023-05-23T06:31:12;100153.22;;;27.82;43.23
58769;BME280;44536;47.474;19.056;2023-05-23T06:34:15;100158.66;;;26.37;46.16
58769;BME280;44536;47.474;19.056;2023-05-23T06:37:17;100150.47;;;27.41;43.41
58769;BME280;44536;47.474;19.056;2023-05-23T06:40:19;100155.19;;;29.04;40.19
58769;BME280;44536;47.474;19.056;2023-05-23T06:43:21;100159.91;;;29.65;38.86
58769;BME280;44536;47.474;19.056;2023-05-23T06:46:25;100164.16;;;29.89;38.17
58769;BME280;44536;47.474;19.056;2023-05-23T06:49:27;100160.59;;;30.78;36.58
58769;BME280;44536;47.474;19.056;2023-05-23T06:52:29;100151.47;;;30.94;36.15
58769;BME280;44536;47.474;19.056;2023-05-23T06:55:32;100161.03;;;30.91;35.89
58769;BME280;44536;47.474;19.056;2023-05-23T06:58:38;100148.87;;;28.28;40.04
58769;BME280;44536;47.474;19.056;2023-05-23T07:01:40;100149.19;;;29.18;39.18
58769;BME280;44536;47.474;19.056;2023-05-23T07:04:43;100146.75;;;30.68;37.37
58769;BME280;44536;47.474;19.056;2023-05-23T07:07:46;100145.19;;;31.15;35.74
58769;BME280;44536;47.474;19.056;2023-05-23T07:10:49;100138.22;;;29.30;38.73
58769;BME280;44536;47.474;19.056;2023-05-23T07:13:51;100143.56;;;30.76;36.42
58769;BME280;44536;47.474;19.056;2023-05-23T07:16:54;100137.31;;;28.73;39.05
58769;BME280;44536;47.474;19.056;2023-05-23T07:19:57;100130.69;;;27.75;42.12
58769;BME280;44536;47.474;19.056;2023-05-23T07:23:02;100133.91;;;28.19;41.59
58769;BME280;44536;47.474;19.056;2023-05-23T07:26:04;100126.72;;;28.99;39.80
58769;BME280;44536;47.474;19.056;2023-05-23T07:29:07;100128.22;;;27.02;44.03
58769;BME280;44536;47.474;19.056;2023-05-23T07:32:10;100132.75;;;24.78;49.93
58769;BME280;44536;47.474;19.056;2023-05-23T07:35:13;100131.34;;;24.55;52.79
58769;BME280;44536;47.474;19.056;2023-05-23T07:38:15;100133.03;;;23.31;55.54
58769;BME280;44536;47.474;19.056;2023-05-23T07:41:17;100130.59;;;23.69;56.34
58769;BME280;44536;47.474;19.056;2023-05-23T07:44:20;100127.81;;;24.55;54.35
58769;BME280;44536;47.474;19.056;2023-05-23T07:47:27;100124.75;;;24.96;51.20
58769;BME280;44536;47.474;19.056;2023-05-23T07:50:30;100123.69;;;24.39;53.66
58769;BME280;44536;47.474;19.056;2023-05-23T07:53:33;100122.22;;;24.43;52.56
58769;BME280;44536;47.474;19.056;2023-05-23T07:56:37;100125.78;;;23.97;54.00
58769;BME280;44536;47.474;19.056;2023-05-23T07:59:42;100119.59;;;24.74;54.68
58769;BME280;44536;47.474;19.056;2023-05-23T08:02:44;100122.28;;;25.89;49.56
58769;BME280;44536;47.474;19.056;2023-05-23T08:05:47;100121.19;;;26.15;48.69
58769;BME280;44536;47.474;19.056;2023-05-23T08:08:51;100118.03;;;26.18;47.55
58769;BME280;44536;47.474;19.056;2023-05-23T08:11:54;100111.37;;;26.14;49.01
58769;BME280;44536;47.474;19.056;2023-05-23T08:14:57;100112.44;;;24.42;51.96
58769;BME280;44536;47.474;19.056;2023-05-23T08:18:01;100108.50;;;23.92;54.00
58769;BME280;44536;47.474;19.056;2023-05-23T08:21:03;100111.97;;;24.52;52.30
58769;BME280;44536;47.474;19.056;2023-05-23T08:24:05;100111.37;;;25.01;51.84
58769;BME280;44536;47.474;19.056;2023-05-23T08:27:08;100120.66;;;26.06;49.06
58769;BME280;44536;47.474;19.056;2023-05-23T08:30:11;100113.38;;;26.00;49.83
58769;BME280;44536;47.474;19.056;2023-05-23T08:33:14;100120.19;;;25.91;50.95
58769;BME280;44536;47.474;19.056;2023-05-23T08:36:17;100121.22;;;24.89;51.54
58769;BME280;44536;47.474;19.056;2023-05-23T08:39:19;100116.13;;;25.44;50.69
58769;BME280;44536;47.474;19.056;2023-05-23T08:42:23;100115.97;;;25.95;49.85
58769;BME280;44536;47.474;19.056;2023-05-23T08:45:25;100112.88;;;25.91;49.23
58769;BME280;44536;47.474;19.056;2023-05-23T08:48:27;100114.53;;;25.61;50.83
58769;BME280;44536;47.474;19.056;2023-05-23T08:51:30;100109.38;;;25.84;49.78
58769;BME280;44536;47.474;19.056;2023-05-23T08:54:34;100110.59;;;26.06;49.37
58769;BME280;44536;47.474;19.056;2023-05-23T08:57:36;100112.13;;;25.78;51.58
58769;BME280;44536;47.474;19.056;2023-05-23T09:00:41;100107.59;;;26.40;49.19
58769;BME280;44536;47.474;19.056;2023-05-23T09:03:44;100110.97;;;26.90;48.31
58769;BME280;44536;47.474;19.056;2023-05-23T09:06:47;100107.75;;;27.94;45.44
58769;BME280;44536;47.474;19.056;2023-05-23T09:09:50;100109.38;;;27.72;46.71
58769;BME280;44536;47.474;19.056;2023-05-23T09:12:52;100106.56;;;27.90;46.42
58769;BME280;44536;47.474;19.056;2023-05-23T09:16:04;100110.12;;;28.89;44.82
58769;BME280;44536;47.474;19.056;2023-05-23T09:19:09;100110.03;;;28.73;43.45
58769;BME280;44536;47.474;19.056;2023-05-23T09:22:12;100116.69;;;29.33;40.92
58769;BME280;44536;47.474;19.056;2023-05-23T09:25:17;100118.09;;;29.81;39.54
58769;BME280;44536;47.474;19.056;2023-05-23T09:28:20;100108.09;;;31.08;36.63
58769;BME280;44536;47.474;19.056;2023-05-23T09:31:24;100108.41;;;31.65;36.48
58769;BME280;44536;47.474;19.056;2023-05-23T09:34:31;100101.72;;;30.37;36.75
58769;BME280;44536;47.474;19.056;2023-05-23T09:40:36;100106.78;;;30.06;37.17
58769;BME280;44536;47.474;19.056;2023-05-23T09:43:51;100104.00;;;30.23;36.75
58769;BME280;44536;47.474;19.056;2023-05-23T09:46:54;100099.72;;;29.31;38.77
58769;BME280;44536;47.474;19.056;2023-05-23T09:49:56;100098.72;;;29.83;38.39
58769;BME280;44536;47.474;19.056;2023-05-23T09:53:00;100095.13;;;32.73;33.97
58769;BME280;44536;47.474;19.056;2023-05-23T09:56:02;100093.84;;;31.33;36.42
58769;BME280;44536;47.474;19.056;2023-05-23T09:59:05;100087.72;;;32.74;34.29
58769;BME280;44536;47.474;19.056;2023-05-23T10:02:12;100089.91;;;31.18;36.48
58769;BME280;44536;47.474;19.056;2023-05-23T10:08:39;100092.72;;;34.55;29.85
58769;BME280;44536;47.474;19.056;2023-05-23T10:15:05;100069.06;;;31.81;35.50
58769;BME280;44536;47.474;19.056;2023-05-23T10:18:14;100075.59;;;30.68;38.22
58769;BME280;44536;47.474;19.056;2023-05-23T10:21:18;100075.28;;;30.86;37.59
58769;BME280;44536;47.474;19.056;2023-05-23T10:24:25;100070.78;;;27.87;42.03
58769;BME280;44536;47.474;19.056;2023-05-23T10:27:28;100071.75;;;29.08;41.22
58769;BME280;44536;47.474;19.056;2023-05-23T10:30:31;100063.31;;;32.20;35.87
58769;BME280;44536;47.474;19.056;2023-05-23T10:33:34;100066.28;;;30.64;37.98
58769;BME280;44536;47.474;19.056;2023-05-23T10:36:42;100065.94;;;31.09;37.57
58769;BME280;44536;47.474;19.056;2023-05-23T10:43:01;100067.16;;;29.75;39.93
58769;BME280;44536;47.474;19.056;2023-05-23T10:49:44;100061.34;;;29.38;41.40
58769;BME280;44536;47.474;19.056;2023-05-23T10:52:47;100065.03;;;28.47;43.17
58769;BME280;44536;47.474;19.056;2023-05-23T10:55:54;100060.00;;;28.04;41.64
58769;BME280;44536;47.474;19.056;2023-05-23T10:58:57;100046.00;;;27.88;41.77
58769;BME280;44536;47.474;19.056;2023-05-23T11:01:59;100051.66;;;26.98;43.68
58769;BME280;44536;47.474;19.056;2023-05-23T11:08:18;100031.16;;;30.39;38.31
58769;BME280;44536;47.474;19.056;2023-05-23T11:11:20;100037.16;;;29.97;40.25
58769;BME280;44536;47.474;19.056;2023-05-23T11:17:34;100022.50;;;31.86;35.40
58769;BME280;44536;47.474;19.056;2023-05-23T11:20:36;100020.56;;;33.47;34.37
58769;BME280;44536;47.474;19.056;2023-05-23T11:23:39;100019.91;;;32.12;32.76
58769;BME280;44536;47.474;19.056;2023-05-23T11:26:52;100011.09;;;34.14;31.48
58769;BME280;44536;47.474;19.056;2023-05-23T11:29:59;100017.25;;;33.20;33.32
58769;BME280;44536;47.474;19.056;2023-05-23T11:33:06;100015.56;;;31.42;34.53
58769;BME280;44536;47.474;19.056;2023-05-23T11:36:14;100006.78;;;32.97;32.04
58769;BME280;44536;47.474;19.056;2023-05-23T11:39:16;100010.37;;;33.58;32.13
58769;BME280;44536;47.474;19.056;2023-05-23T11:42:21;99995.84;;;32.29;32.15
58769;BME280;44536;47.474;19.056;2023-05-23T11:45:23;99998.03;;;30.84;35.38
58769;BME280;44536;47.474;19.056;2023-05-23T11:48:26;100005.50;;;30.61;38.10
58769;BME280;44536;47.474;19.056;2023-05-23T11:51:28;99995.88;;;29.10;37.15
58769;BME280;44536;47.474;19.056;2023-05-23T11:54:31;99977.66;;;28.42;43.40
58769;BME280;44536;47.474;19.056;2023-05-23T12:01:19;99981.31;;;29.04;39.95
58769;BME280;44536;47.474;19.056;2023-05-23T12:04:23;99969.78;;;31.37;35.90
58769;BME280;44536;47.474;19.056;2023-05-23T12:07:26;99963.00;;;32.49;34.89
58769;BME280;44536;47.474;19.056;2023-05-23T12:10:28;99957.22;;;32.46;33.22
58769;BME280;44536;47.474;19.056;2023-05-23T12:13:30;99949.09;;;33.42;32.29
58769;BME280;44536;47.474;19.056;2023-05-23T12:16:33;99954.22;;;33.90;32.68
58769;BME280;44536;47.474;19.056;2023-05-23T12:19:35;99937.50;;;34.45;30.71
58769;BME280;44536;47.474;19.056;2023-05-23T12:22:38;99943.34;;;33.18;33.75
58769;BME280;44536;47.474;19.056;2023-05-23T12:25:44;99935.03;;;32.63;33.56
58769;BME280;44536;47.474;19.056;2023-05-23T12:28:50;99934.19;;;31.42;34.37
58769;BME280;44536;47.474;19.056;2023-05-23T12:31:52;99936.00;;;30.68;37.16
58769;BME280;44536;47.474;19.056;2023-05-23T12:34:55;99927.81;;;30.19;36.76
58769;BME280;44536;47.474;19.056;2023-05-23T12:38:00;99918.84;;;31.41;36.23
58769;BME280;44536;47.474;19.056;2023-05-23T12:41:09;99910.94;;;31.92;36.74
58769;BME280;44536;47.474;19.056;2023-05-23T12:44:14;99913.25;;;31.63;31.26
58769;BME280;44536;47.474;19.056;2023-05-23T12:47:16;99906.66;;;32.21;31.27
58769;BME280;44536;47.474;19.056;2023-05-23T12:50:18;99909.50;;;31.37;32.36
58769;BME280;44536;47.474;19.056;2023-05-23T12:53:21;99908.03;;;31.24;33.55
58769;BME280;44536;47.474;19.056;2023-05-23T12:56:26;99903.09;;;30.57;33.60
58769;BME280;44536;47.474;19.056;2023-05-23T12:59:28;99901.56;;;30.67;33.52
58769;BME280;44536;47.474;19.056;2023-05-23T13:02:30;99903.53;;;30.49;37.26
58769;BME280;44536;47.474;19.056;2023-05-23T13:05:33;99894.63;;;30.59;33.81
58769;BME280;44536;47.474;19.056;2023-05-23T13:08:35;99891.94;;;29.93;35.52
58769;BME280;44536;47.474;19.056;2023-05-23T13:11:37;99883.22;;;30.18;34.69
58769;BME280;44536;47.474;19.056;2023-05-23T13:14:40;99875.78;;;29.70;35.53
58769;BME280;44536;47.474;19.056;2023-05-23T13:17:42;99879.66;;;29.36;35.96
58769;BME280;44536;47.474;19.056;2023-05-23T13:20:50;99869.31;;;29.76;38.44
58769;BME280;44536;47.474;19.056;2023-05-23T13:23:52;99881.31;;;30.19;34.71
58769;BME280;44536;47.474;19.056;2023-05-23T13:26:54;99871.06;;;30.31;36.69
58769;BME280;44536;47.474;19.056;2023-05-23T13:29:57;99873.31;;;29.90;36.30
58769;BME280;44536;47.474;19.056;2023-05-23T13:32:59;99871.16;;;29.49;38.80
58769;BME280;44536;47.474;19.056;2023-05-23T13:36:02;99875.62;;;29.38;38.46
58769;BME280;44536;47.474;19.056;2023-05-23T13:39:04;99868.75;;;29.52;37.15
58769;BME280;44536;47.474;19.056;2023-05-23T13:42:06;99873.44;;;29.02;37.54
58769;BME280;44536;47.474;19.056;2023-05-23T13:45:08;99882.88;;;29.11;37.13
58769;BME280;44536;47.474;19.056;2023-05-23T13:48:11;99863.25;;;28.97;36.13
58769;BME280;44536;47.474;19.056;2023-05-23T13:51:13;99870.09;;;29.16;40.24
58769;BME280;44536;47.474;19.056;2023-05-23T13:54:15;99875.69;;;28.43;37.34
58769;BME280;44536;47.474;19.056;2023-05-23T13:57:18;99869.13;;;28.27;37.75
58769;BME280;44536;47.474;19.056;2023-05-23T14:00:20;99867.09;;;28.51;39.14
58769;BME280;44536;47.474;19.056;2023-05-23T14:03:23;99857.03;;;28.51;37.92
58769;BME280;44536;47.474;19.056;2023-05-23T14:06:26;99857.88;;;28.85;37.82
58769;BME280;44536;47.474;19.056;2023-05-23T14:09:28;99860.91;;;28.72;36.86
58769;BME280;44536;47.474;19.056;2023-05-23T14:12:30;99859.03;;;28.89;36.69
58769;BME280;44536;47.474;19.056;2023-05-23T14:15:33;99855.56;;;28.94;37.03
58769;BME280;44536;47.474;19.056;2023-05-23T14:18:35;99853.09;;;28.92;36.81
58769;BME280;44536;47.474;19.056;2023-05-23T14:21:38;99857.44;;;28.77;39.59
58769;BME280;44536;47.474;19.056;2023-05-23T14:24:40;99846.69;;;28.70;36.90
58769;BME280;44536;47.474;19.056;2023-05-23T14:27:42;99831.25;;;28.59;36.57
58769;BME280;44536;47.474;19.056;2023-05-23T14:30:44;99833.09;;;28.25;37.03
58769;BME280;44536;47.474;19.056;2023-05-23T14:33:47;99831.31;;;28.64;36.92
58769;BME280;44536;47.474;19.056;2023-05-23T14:36:50;99828.56;;;28.30;36.87
58769;BME280;44536;47.474;19.056;2023-05-23T14:39:53;99834.97;;;28.53;34.94
58769;BME280;44536;47.474;19.056;2023-05-23T14:42:55;99834.28;;;28.46;34.63
58769;BME280;44536;47.474;19.056;2023-05-23T14:45:57;99836.44;;;28.60;37.48
58769;BME280;44536;47.474;19.056;2023-05-23T14:49:00;99836.97;;;28.91;38.06
58769;BME280;44536;47.474;19.056;2023-05-23T14:52:02;99837.53;;;28.93;37.48
58769;BME280;44536;47.474;19.056;2023-05-23T14:55:04;99833.16;;;28.92;36.70
58769;BME280;44536;47.474;19.056;2023-05-23T14:58:07;99838.53;;;28.87;38.18
58769;BME280;44536;47.474;19.056;2023-05-23T15:01:13;99836.59;;;28.37;38.57
58769;BME280;44536;47.474;19.056;2023-05-23T15:04:15;99841.37;;;28.30;37.38
58769;BME280;44536;47.474;19.056;2023-05-23T15:07:17;99845.31;;;28.22;37.40
58769;BME280;44536;47.474;19.056;2023-05-23T15:10:20;99850.78;;;27.82;38.29
58769;BME280;44536;47.474;19.056;2023-05-23T15:13:23;99840.03;;;27.76;38.37
58769;BME280;44536;47.474;19.056;2023-05-23T15:16:25;99842.16;;;27.74;38.03
58769;BME280;44536;47.474;19.056;2023-05-23T15:19:27;99844.25;;;27.83;37.82
58769;BME280;44536;47.474;19.056;2023-05-23T15:22:30;99833.84;;;27.80;38.14
58769;BME280;44536;47.474;19.056;2023-05-23T15:25:40;99841.44;;;27.78;39.51
58769;BME280;44536;47.474;19.056;2023-05-23T15:28:45;99833.84;;;27.80;39.63
58769;BME280;44536;47.474;19.056;2023-05-23T15:31:47;99838.59;;;27.73;40.43
58769;BME280;44536;47.474;19.056;2023-05-23T15:34:50;99838.06;;;27.99;39.21
58769;BME280;44536;47.474;19.056;2023-05-23T15:37:52;99841.66;;;27.77;37.99
58769;BME280;44536;47.474;19.056;2023-05-23T15:40:54;99842.88;;;27.69;39.44
58769;BME280;44536;47.474;19.056;2023-05-23T15:43:57;99841.47;;;27.66;38.47
58769;BME280;44536;47.474;19.056;2023-05-23T15:47:00;99843.94;;;27.56;39.19
58769;BME280;44536;47.474;19.056;2023-05-23T15:50:03;99838.31;;;27.34;38.89
58769;BME280;44536;47.474;19.056;2023-05-23T15:53:05;99831.09;;;27.17;37.77
58769;BME280;44536;47.474;19.056;2023-05-23T15:56:07;99823.75;;;27.06;38.29
58769;BME280;44536;47.474;19.056;2023-05-23T15:59:10;99820.19;;;26.93;38.54
58769;BME280;44536;47.474;19.056;2023-05-23T16:02:12;99827.16;;;26.78;40.00
58769;BME280;44536;47.474;19.056;2023-05-23T16:05:16;99821.59;;;26.73;39.36
58769;BME280;44536;47.474;19.056;2023-05-23T16:08:18;99814.34;;;26.55;39.27
58769;BME280;44536;47.474;19.056;2023-05-23T16:11:21;99820.63;;;26.44;39.21
58769;BME280;44536;47.474;19.056;2023-05-23T16:14:23;99822.50;;;26.43;40.55
58769;BME280;44536;47.474;19.056;2023-05-23T16:17:25;99819.06;;;26.36;41.25
58769;BME280;44536;47.474;19.056;2023-05-23T16:20:27;99820.34;;;26.33;41.76
58769;BME280;44536;47.474;19.056;2023-05-23T16:23:30;99826.47;;;26.29;40.63
58769;BME280;44536;47.474;19.056;2023-05-23T16:26:32;99826.31;;;26.24;40.82